createdAt,value
2022-11-27T00:01:51.605Z,15.23
2022-11-27T00:04:18.370Z,11.93
2022-11-27T00:06:45.351Z,16.45
2022-11-27T00:09:39.187Z,12.85
2022-11-27T00:13:49.371Z,9.45
2022-11-27T00:27:23.808Z,6.50
2022-11-27T00:29:50.398Z,10.82
2022-11-27T00:32:50.724Z,10.27
2022-11-27T00:38:16.375Z,12.63
2022-11-27T00:40:43.027Z,13.95
2022-11-27T00:43:10.092Z,10.95
2022-11-27T00:45:36.670Z,8.95
2022-11-27T00:48:05.092Z,9.45
2022-11-27T00:50:34.479Z,8.75
2022-11-27T00:53:01.229Z,10.48
2022-11-27T00:55:27.887Z,8.00
2022-11-27T00:57:54.613Z,7.97
2022-11-27T01:00:22.335Z,6.35
2022-11-27T01:02:49.860Z,5.82
2022-11-27T01:05:19.951Z,8.20
2022-11-27T01:07:54.593Z,5.65
2022-11-27T01:10:32.102Z,5.22
2022-11-27T01:13:04.912Z,6.72
2022-11-27T01:23:46.175Z,6.03
2022-11-27T01:27:15.272Z,8.70
2022-11-27T01:36:16.926Z,4.80
2022-11-27T01:38:47.756Z,5.35
2022-11-27T01:41:24.395Z,8.32
2022-11-27T01:43:52.398Z,9.70
2022-11-27T01:46:31.088Z,6.75
2022-11-27T01:49:22.689Z,12.25
2022-11-27T01:51:57.452Z,9.68
2022-11-27T01:54:31.585Z,10.23
2022-11-27T01:57:06.607Z,7.10
2022-11-27T01:59:33.869Z,8.05
2022-11-27T02:02:03.420Z,5.68
2022-11-27T02:04:30.769Z,7.43
2022-11-27T02:06:59.617Z,12.30
2022-11-27T02:09:28.177Z,7.90
2022-11-27T02:12:25.171Z,8.23
2022-11-27T02:15:08.090Z,9.52
2022-11-27T02:17:49.855Z,5.45
2022-11-27T02:20:43.330Z,9.23
2022-11-27T02:23:12.888Z,7.50
2022-11-27T02:25:57.719Z,8.90
2022-11-27T02:28:34.630Z,9.73
2022-11-27T02:31:31.270Z,6.47
2022-11-27T02:34:09.386Z,6.50
2022-11-27T02:36:39.551Z,5.50
2022-11-27T02:39:12.235Z,9.00
2022-11-27T02:42:06.139Z,9.05
2022-11-27T02:44:39.202Z,9.77
2022-11-27T02:47:06.350Z,8.18
2022-11-27T02:49:36.463Z,7.10
2022-11-27T02:52:04.630Z,9.35
2022-11-27T02:54:32.336Z,7.68
2022-11-27T02:57:18.712Z,10.15
2022-11-27T02:59:45.826Z,9.27
2022-11-27T03:02:19.525Z,8.18
2022-11-27T03:04:52.667Z,7.80
2022-11-27T03:07:29.455Z,12.57
2022-11-27T03:10:03.513Z,9.48
2022-11-27T03:12:30.231Z,5.75
2022-11-27T03:14:57.028Z,6.72
2022-11-27T03:17:53.000Z,6.32
2022-11-27T03:20:22.025Z,5.93
2022-11-27T03:22:49.659Z,8.27
2022-11-27T03:25:16.610Z,5.85
2022-11-27T03:27:49.788Z,11.93
2022-11-27T03:30:16.511Z,7.82
2022-11-27T03:32:43.517Z,8.07
2022-11-27T03:35:12.768Z,9.15
2022-11-27T03:37:39.551Z,6.13
2022-11-27T03:41:41.054Z,5.72
2022-11-27T03:45:21.214Z,3.90
2022-11-27T03:48:23.490Z,4.60
2022-11-27T03:53:38.650Z,4.43
2022-11-27T03:56:36.620Z,3.65
2022-11-27T03:59:22.766Z,7.55
2022-11-27T04:01:51.240Z,11.30
2022-11-27T04:04:23.214Z,9.70
2022-11-27T04:06:50.172Z,11.02
2022-11-27T04:09:17.159Z,10.77
2022-11-27T04:11:44.050Z,9.55
2022-11-27T04:14:10.784Z,5.85
2022-11-27T04:16:37.695Z,6.38
2022-11-27T04:19:07.046Z,9.77
2022-11-27T04:21:51.156Z,4.90
2022-11-27T04:24:17.910Z,3.70
2022-11-27T04:26:44.866Z,4.03
2022-11-27T04:29:11.525Z,4.80
2022-11-27T04:31:38.282Z,5.03
2022-11-27T04:34:12.695Z,7.95
2022-11-27T04:36:50.007Z,6.70
2022-11-27T04:39:18.525Z,3.40
2022-11-27T04:41:55.057Z,5.07
2022-11-27T04:44:24.248Z,5.68
2022-11-27T04:46:53.107Z,4.80
2022-11-27T04:49:22.472Z,3.03
2022-11-27T04:51:52.467Z,3.85
2022-11-27T04:54:25.431Z,4.10
2022-11-27T04:56:54.898Z,3.28
2022-11-27T04:59:28.092Z,5.30
2022-11-27T05:01:55.009Z,5.03
2022-11-27T05:04:32.674Z,4.10
2022-11-27T05:07:03.159Z,3.50
2022-11-27T05:09:29.786Z,3.17
2022-11-27T05:11:56.601Z,3.65
2022-11-27T05:14:29.246Z,2.47
2022-11-27T05:16:58.498Z,6.60
2022-11-27T05:19:31.165Z,4.28
2022-11-27T05:22:10.407Z,4.60
2022-11-27T05:24:37.100Z,4.68
2022-11-27T05:27:04.027Z,4.43
2022-11-27T05:29:30.672Z,5.32
2022-11-27T05:31:57.512Z,3.72
2022-11-27T05:34:24.436Z,5.82
2022-11-27T05:36:51.118Z,6.72
2022-11-27T05:39:17.711Z,5.90
2022-11-27T05:41:44.316Z,6.90
2022-11-27T05:44:15.210Z,5.68
2022-11-27T05:46:43.810Z,5.03
2022-11-27T05:49:15.442Z,5.90
2022-11-27T05:51:46.367Z,4.47
2022-11-27T05:54:17.520Z,6.93
2022-11-27T05:56:44.115Z,4.95
2022-11-27T05:59:10.992Z,5.10
2022-11-27T06:01:37.768Z,4.68
2022-11-27T06:04:04.528Z,5.10
2022-11-27T06:06:31.214Z,5.38
2022-11-27T06:08:57.686Z,5.18
2022-11-27T06:11:24.371Z,10.75
2022-11-27T06:13:51.026Z,5.47
2022-11-27T06:16:23.565Z,7.82
2022-11-27T06:18:54.812Z,5.75
2022-11-27T06:21:22.922Z,6.05
2022-11-27T06:23:49.777Z,4.30
2022-11-27T06:26:22.893Z,3.30
2022-11-27T06:28:50.165Z,4.22
2022-11-27T06:31:19.779Z,7.50
2022-11-27T06:33:48.030Z,4.32
2022-11-27T06:36:15.087Z,4.78
2022-11-27T06:38:41.732Z,8.30
2022-11-27T06:41:13.871Z,6.32
2022-11-27T06:43:40.741Z,6.45
2022-11-27T06:46:13.640Z,7.30
2022-11-27T06:48:40.354Z,6.15
2022-11-27T06:51:08.329Z,5.95
2022-11-27T06:53:37.452Z,5.43
2022-11-27T06:56:08.908Z,9.48
2022-11-27T06:58:36.102Z,5.47
2022-11-27T07:01:05.592Z,8.32
2022-11-27T07:03:32.084Z,5.90
2022-11-27T07:06:03.222Z,5.65
2022-11-27T07:08:30.267Z,4.30
2022-11-27T07:11:08.211Z,4.15
2022-11-27T07:13:34.974Z,4.32
2022-11-27T07:16:07.617Z,3.38
2022-11-27T07:18:40.463Z,2.50
2022-11-27T07:21:07.588Z,3.17
2022-11-27T07:23:34.149Z,2.67
2022-11-27T07:26:06.034Z,4.13
2022-11-27T07:28:32.556Z,3.20
2022-11-27T07:30:59.578Z,5.20
2022-11-27T07:33:26.515Z,3.88
2022-11-27T07:36:01.378Z,5.63
2022-11-27T07:38:27.924Z,2.90
2022-11-27T07:40:54.339Z,2.50
2022-11-27T07:43:20.861Z,2.72
2022-11-27T07:45:47.384Z,3.00
2022-11-27T07:48:13.811Z,7.78
2022-11-27T07:50:40.480Z,3.72
2022-11-27T07:53:06.881Z,4.65
2022-11-27T07:55:33.303Z,3.35
2022-11-27T07:57:59.721Z,7.47
2022-11-27T08:00:26.154Z,4.00
2022-11-27T08:02:52.570Z,4.53
2022-11-27T08:05:19.158Z,3.70
2022-11-27T08:07:45.680Z,3.45
2022-11-27T08:10:12.193Z,4.43
2022-11-27T08:12:38.732Z,5.70
2022-11-27T08:15:05.749Z,5.80
2022-11-27T08:17:34.508Z,7.57
2022-11-27T08:20:01.231Z,7.45
2022-11-27T08:22:27.778Z,5.88
2022-11-27T08:24:54.340Z,8.27
2022-11-27T08:27:20.744Z,6.32
2022-11-27T08:29:47.931Z,6.30
2022-11-27T08:32:14.643Z,6.05
2022-11-27T08:34:41.264Z,5.03
2022-11-27T08:37:08.153Z,6.10
2022-11-27T08:39:34.611Z,5.95
2022-11-27T08:42:01.202Z,6.78
2022-11-27T08:44:27.601Z,6.63
2022-11-27T08:46:54.059Z,6.45
2022-11-27T08:49:20.580Z,6.80
2022-11-27T08:51:46.983Z,6.03
2022-11-27T08:54:13.431Z,5.63
2022-11-27T08:56:39.842Z,5.32
2022-11-27T08:59:06.315Z,4.65
2022-11-27T09:01:33.323Z,5.32
2022-11-27T09:04:00.067Z,6.20
2022-11-27T09:06:29.461Z,6.20
2022-11-27T09:08:57.333Z,5.53
2022-11-27T09:11:23.801Z,6.07
2022-11-27T09:13:50.645Z,4.65
2022-11-27T09:16:22.210Z,5.13
2022-11-27T09:18:50.547Z,5.30
2022-11-27T09:23:45.173Z,4.60
2022-11-27T09:26:14.372Z,6.50
2022-11-27T09:28:41.956Z,6.18
2022-11-27T09:31:11.239Z,6.40
2022-11-27T09:33:39.617Z,5.88
2022-11-27T09:36:16.199Z,6.35
2022-11-27T09:38:42.762Z,7.50
2022-11-27T09:41:11.981Z,6.47
2022-11-27T09:43:49.395Z,5.13
2022-11-27T09:46:26.050Z,6.28
2022-11-27T09:48:54.344Z,5.82
2022-11-27T09:51:20.669Z,5.00
2022-11-27T09:53:58.260Z,5.40
2022-11-27T09:56:25.117Z,4.47
2022-11-27T09:58:59.994Z,5.38
2022-11-27T10:04:14.931Z,5.30
2022-11-27T10:06:54.494Z,5.80
2022-11-27T10:09:39.019Z,5.43
2022-11-27T10:12:21.931Z,5.88
2022-11-27T10:15:14.659Z,6.28
2022-11-27T10:17:52.242Z,5.38
2022-11-27T10:20:47.181Z,5.82
2022-11-27T10:23:59.098Z,5.57
2022-11-27T10:26:34.027Z,5.70
2022-11-27T10:29:19.139Z,7.38
2022-11-27T10:31:51.849Z,6.82
2022-11-27T10:34:37.043Z,5.90
2022-11-27T10:37:13.115Z,4.82
2022-11-27T10:40:09.330Z,7.03
2022-11-27T10:43:02.119Z,6.65
2022-11-27T10:45:44.341Z,6.97
2022-11-27T10:48:12.438Z,5.63
2022-11-27T10:50:39.449Z,5.47
2022-11-27T10:53:14.797Z,6.93
2022-11-27T10:55:59.903Z,5.68
2022-11-27T10:58:34.827Z,4.50
2022-11-27T11:01:09.883Z,5.20
2022-11-27T11:03:36.905Z,5.20
2022-11-27T11:06:31.013Z,5.35
2022-11-27T11:09:04.093Z,5.53
2022-11-27T11:11:30.562Z,5.10
2022-11-27T11:13:57.149Z,5.22
2022-11-27T11:16:34.972Z,5.40
2022-11-27T11:19:02.567Z,5.82
2022-11-27T11:21:33.189Z,5.10
2022-11-27T11:24:06.311Z,8.63
2022-11-27T11:26:40.290Z,5.45
2022-11-27T11:29:36.228Z,5.20
2022-11-27T11:32:07.877Z,5.20
2022-11-27T11:34:35.082Z,4.95
2022-11-27T11:37:05.255Z,4.75
2022-11-27T11:40:10.770Z,4.13
2022-11-27T11:42:57.299Z,4.50
2022-11-27T11:45:26.527Z,4.38
2022-11-27T11:47:57.459Z,4.25
2022-11-27T11:50:31.681Z,3.90
2022-11-27T11:53:31.964Z,3.80
2022-11-27T11:56:16.351Z,5.22
2022-11-27T11:59:16.982Z,5.35
2022-11-27T12:02:06.141Z,4.47
2022-11-27T12:05:03.636Z,4.53
2022-11-27T12:08:05.008Z,4.63
2022-11-27T12:10:35.779Z,5.15
2022-11-27T12:13:34.493Z,4.95
2022-11-27T12:16:28.765Z,4.82
2022-11-27T12:19:13.927Z,4.30
2022-11-27T12:22:14.321Z,3.90
2022-11-27T12:25:14.992Z,3.90
2022-11-27T12:28:07.409Z,4.18
2022-11-27T12:31:04.707Z,5.05
2022-11-27T12:33:48.327Z,5.28
2022-11-27T12:36:30.057Z,5.78
2022-11-27T12:39:18.221Z,5.40
2022-11-27T12:44:48.109Z,4.55
2022-11-27T12:47:39.950Z,5.70
2022-11-27T12:50:21.121Z,5.28
2022-11-27T12:52:57.079Z,4.97
2022-11-27T12:55:29.002Z,4.57
2022-11-27T12:58:07.085Z,4.60
2022-11-27T13:00:39.186Z,3.90
2022-11-27T13:03:14.094Z,3.95
2022-11-27T13:05:50.165Z,4.22
2022-11-27T13:08:26.386Z,3.83
2022-11-27T13:10:57.276Z,3.33
2022-11-27T13:13:34.081Z,3.20
2022-11-27T13:16:11.077Z,3.55
2022-11-27T13:18:41.497Z,4.13
2022-11-27T13:21:15.447Z,4.40
2022-11-27T13:23:42.079Z,5.05
2022-11-27T13:26:26.268Z,3.97
2022-11-27T13:28:58.307Z,4.85
2022-11-27T13:31:29.540Z,4.18
2022-11-27T13:34:07.127Z,4.90
2022-11-27T13:36:39.674Z,4.05
2022-11-27T13:39:06.909Z,4.50
2022-11-27T13:41:41.542Z,4.00
2022-11-27T13:44:26.120Z,4.95
2022-11-27T13:46:56.839Z,4.57
2022-11-27T13:49:32.602Z,4.38
2022-11-27T13:52:12.259Z,4.65
2022-11-27T13:54:39.305Z,4.80
2022-11-27T13:57:14.749Z,4.03
2022-11-27T13:59:41.411Z,3.22
2022-11-27T14:02:09.025Z,3.58
2022-11-27T14:04:50.606Z,5.07
2022-11-27T14:07:21.459Z,4.60
2022-11-27T14:09:52.920Z,4.72
2022-11-27T14:12:27.149Z,4.07
2022-11-27T14:15:16.227Z,3.97
2022-11-27T14:17:45.165Z,3.67
2022-11-27T14:20:17.739Z,4.68
2022-11-27T14:23:11.106Z,4.30
2022-11-27T14:25:40.084Z,4.97
2022-11-27T14:28:21.829Z,5.15
2022-11-27T14:30:53.823Z,3.88
2022-11-27T14:33:25.954Z,5.30
2022-11-27T14:36:04.518Z,5.88
2022-11-27T14:38:33.377Z,4.45
2022-11-27T14:41:16.262Z,4.28
2022-11-27T14:43:42.741Z,4.63
2022-11-27T14:46:18.576Z,6.10
2022-11-27T14:48:54.840Z,6.13
2022-11-27T14:51:24.455Z,6.20
2022-11-27T14:53:56.759Z,6.03
2022-11-27T14:56:23.341Z,6.10
2022-11-27T14:58:54.980Z,6.47
2022-11-27T15:01:29.994Z,6.90
2022-11-27T15:03:57.306Z,6.40
2022-11-27T15:06:25.632Z,5.03
2022-11-27T15:09:15.796Z,5.88
2022-11-27T15:11:55.174Z,5.65
2022-11-27T15:14:22.588Z,5.45
2022-11-27T15:16:51.677Z,5.30
2022-11-27T15:19:37.626Z,7.07
2022-11-27T15:22:04.988Z,5.82
2022-11-27T15:24:34.302Z,5.05
2022-11-27T15:27:18.071Z,5.78
2022-11-27T15:29:53.551Z,6.07
2022-11-27T15:32:25.816Z,5.65
2022-11-27T15:34:53.500Z,5.88
2022-11-27T15:37:34.112Z,7.35
2022-11-27T15:40:01.835Z,10.25
2022-11-27T15:42:30.614Z,8.57
2022-11-27T15:44:58.421Z,8.65
2022-11-27T15:47:35.338Z,7.95
2022-11-27T15:50:03.305Z,8.18
2022-11-27T15:52:35.107Z,12.20
2022-11-27T16:00:14.357Z,8.10
2022-11-27T16:10:35.112Z,6.53
2022-11-27T16:17:17.312Z,5.22
2022-11-27T16:20:36.469Z,4.53
2022-11-27T16:24:48.533Z,4.13
2022-11-27T16:36:35.138Z,8.60
2022-11-27T16:37:18.572Z,6.93
2022-11-27T16:39:45.264Z,9.43
2022-11-27T16:42:12.059Z,7.47
2022-11-27T16:55:39.766Z,6.55
2022-11-27T16:58:06.187Z,7.55
2022-11-27T17:00:32.741Z,5.70
2022-11-27T17:03:08.066Z,5.53
2022-11-27T17:05:40.137Z,5.30
2022-11-27T17:19:41.962Z,7.88
2022-11-27T17:26:24.846Z,10.55
2022-11-27T17:36:26.939Z,7.22
2022-11-27T17:39:08.440Z,8.65
2022-11-27T17:41:43.998Z,7.78
2022-11-27T17:44:11.565Z,7.72
2022-11-27T17:46:40.065Z,7.22
2022-11-27T17:49:13.441Z,5.80
2022-11-27T17:51:43.743Z,5.85
2022-11-27T17:54:12.089Z,4.13
2022-11-27T17:56:39.328Z,6.75
2022-11-27T17:59:10.295Z,9.82
2022-11-27T18:51:44.912Z,4.57
2022-11-27T18:54:15.731Z,5.30
2022-11-27T18:56:45.418Z,5.85
2022-11-27T19:06:31.963Z,7.30
2022-11-27T19:09:09.597Z,8.63
2022-11-27T19:15:55.933Z,9.40
2022-11-27T19:22:49.453Z,6.72
2022-11-27T19:29:22.430Z,6.78
2022-11-27T19:31:49.462Z,7.40
2022-11-27T19:34:18.846Z,6.72
2022-11-27T19:36:45.367Z,5.57
2022-11-27T19:39:14.282Z,5.82
2022-11-27T19:41:44.093Z,5.53
2022-11-27T19:44:13.179Z,5.03
2022-11-27T19:46:39.871Z,6.82
2022-11-27T19:49:12.800Z,8.32
2022-11-27T19:51:39.508Z,9.35
2022-11-27T19:54:10.259Z,9.20
2022-11-27T19:56:39.878Z,8.02
2022-11-27T19:59:06.919Z,10.18
2022-11-27T20:01:38.375Z,8.02
2022-11-27T20:04:06.118Z,8.60
2022-11-27T20:06:41.612Z,8.65
2022-11-27T20:09:18.278Z,10.60
2022-11-27T20:11:44.974Z,7.32
2022-11-27T20:14:17.700Z,9.32
2022-11-27T20:16:46.807Z,8.05
2022-11-27T20:19:25.141Z,10.80
2022-11-27T20:21:51.731Z,10.63
2022-11-27T20:24:18.327Z,12.85
2022-11-27T20:26:44.863Z,12.68
2022-11-27T20:35:40.798Z,8.65
2022-11-27T20:38:07.883Z,11.07
2022-11-27T20:40:37.886Z,11.73
2022-11-27T20:43:04.371Z,9.68
2022-11-27T20:45:31.187Z,9.93
2022-11-27T20:47:58.073Z,9.30
2022-11-27T20:58:03.021Z,6.93
2022-11-27T21:00:59.157Z,6.57
2022-11-27T21:03:35.790Z,7.80
2022-11-27T21:09:54.694Z,7.55
2022-11-27T21:15:21.093Z,10.02
2022-11-27T21:17:59.154Z,7.82
2022-11-27T21:20:37.389Z,7.28
2022-11-27T21:27:08.998Z,7.47
2022-11-27T21:29:49.256Z,7.13
2022-11-27T21:32:18.101Z,7.28
2022-11-27T21:35:00.566Z,8.75
2022-11-27T21:37:46.159Z,6.20
2022-11-27T21:40:24.294Z,8.57
2022-11-27T21:42:52.095Z,7.00
2022-11-27T21:45:21.552Z,10.60
2022-11-27T21:52:38.728Z,8.35
2022-11-27T21:58:57.467Z,7.47
2022-11-27T22:05:10.766Z,6.07
2022-11-27T22:07:44.556Z,9.30
2022-11-27T22:14:06.518Z,7.32
2022-11-27T22:18:06.878Z,7.93
2022-11-27T22:24:19.018Z,10.52
2022-11-27T22:27:36.649Z,10.23
2022-11-27T22:30:09.385Z,10.98
2022-11-27T22:33:05.569Z,10.38
2022-11-27T22:35:32.304Z,10.15
2022-11-27T22:38:05.194Z,9.45
2022-11-27T22:40:31.734Z,10.15
2022-11-27T22:43:07.019Z,10.68
2022-11-27T22:45:34.075Z,11.32
2022-11-27T22:48:00.844Z,11.32
2022-11-27T22:50:29.977Z,11.13
2022-11-27T22:52:58.359Z,7.75
2022-11-27T22:55:25.443Z,8.88
2022-11-27T22:57:52.128Z,9.35
2022-11-27T23:00:19.656Z,9.90
2022-11-27T23:02:46.640Z,8.40
2022-11-27T23:05:13.288Z,8.82
2022-11-27T23:07:40.184Z,9.30
2022-11-27T23:10:09.356Z,11.27
2022-11-27T23:12:54.384Z,11.23
2022-11-27T23:18:46.356Z,9.55
2022-11-27T23:21:16.650Z,8.70
2022-11-27T23:24:01.903Z,8.35
2022-11-27T23:26:35.357Z,9.98
2022-11-27T23:29:02.871Z,9.55
2022-11-27T23:31:35.194Z,8.95
2022-11-27T23:34:04.437Z,6.25
2022-11-27T23:36:32.563Z,7.00
2022-11-27T23:50:16.585Z,6.72
2022-11-27T23:52:47.167Z,8.68
2022-11-27T23:55:20.367Z,9.65
2022-11-27T23:58:26.815Z,10.23
